Mc Allister, Montana
Current Conditions -  °F | °C
As of 2:56 PM on Monday 24 Nov 2014 (Local Time) from KBZN Reporting Station
Clear Clear  
Wind Chill: 33°   Ceiling: Unl
Heat Index: 39°   Visibility: 10mi
Dew Point: 14°   Wind: 9mph
Humidity: 36%   Direction: 280°W
Pressure: 30.2"   Gusts: NA
Location:  45.4445°N, 111.731°W
Report Text: KBZN 242156Z 28008KT 10SM CLR 04/M10 A3020 RMK AO2 SLP249 T00391100
Loading
Personal Weather Stations






























Interactive Weather Map New forecast layout! Learn more

10-Day Weather Forecast

Advertisements
Track Severe Weather on mobile